Time;durP1;ratioP1;P1;durP2;ratioP2;P2;SDS_P1;SDS_P2;PMS_P1;PMS_P2;Temp;Humidity;BMP_temperature;BMP_pressure;BME280_temperature;BME280_humidity;BME280_pressure;Samples;Min_cycle;Max_cycle;Signal;HPM_P1;HPM_P2
2022/07/14 00:01:19;;;;;;;2.38;2.17;;;;;;;11.73;70.49;93956.78;5012488;28;20061;-41
2022/07/14 00:03:45;;;;;;;2.35;2.08;;;;;;;11.55;70.86;93954.97;5012743;28;20034;-41
2022/07/14 00:06:10;;;;;;;2.13;2.00;;;;;;;11.58;70.93;93962.94;5012256;28;20491;-41
2022/07/14 00:08:36;;;;;;;3.40;2.10;;;;;;;11.64;70.05;93951.72;5012254;28;20014;-41
2022/07/14 00:11:03;;;;;;;2.50;2.03;;;;;;;11.62;70.25;93945.97;5012275;28;20033;-41
2022/07/14 00:13:29;;;;;;;2.00;1.90;;;;;;;11.71;70.37;93959.34;5012666;28;20034;-41
2022/07/14 00:15:54;;;;;;;2.55;2.35;;;;;;;11.76;70.24;93955.69;5012104;28;20088;-43
2022/07/14 00:18:20;;;;;;;2.97;2.05;;;;;;;11.85;70.23;93964.22;5011906;28;20045;-45
2022/07/14 00:20:45;;;;;;;2.35;2.15;;;;;;;11.98;69.41;93961.34;5012377;28;20491;-42
2022/07/14 00:23:11;;;;;;;4.07;2.20;;;;;;;11.69;70.24;93961.91;5012305;28;20396;-43
2022/07/14 00:25:36;;;;;;;2.10;1.90;;;;;;;11.62;70.50;93960.56;5012115;28;20025;-42
2022/07/14 00:28:02;;;;;;;2.40;2.10;;;;;;;11.37;71.50;93951.91;5011882;28;20061;-44
2022/07/14 00:30:27;;;;;;;3.10;1.95;;;;;;;11.34;70.73;93955.75;5012023;28;20030;-44
2022/07/14 00:32:54;;;;;;;4.65;1.92;;;;;;;11.57;70.28;93952.41;5012135;28;20410;-43
2022/07/14 00:35:20;;;;;;;15.60;14.35;;;;;;;11.66;70.90;93952.66;5012157;28;20018;-43
2022/07/14 00:37:45;;;;;;;4.18;1.90;;;;;;;11.57;69.56;93957.94;5012098;28;20399;-45
2022/07/14 00:40:11;;;;;;;1.60;1.50;;;;;;;11.56;69.30;93959.97;5011973;28;20022;-45
2022/07/14 00:42:38;;;;;;;2.05;1.95;;;;;;;11.58;68.62;93954.63;5012067;28;20053;-46
2022/07/14 00:45:09;;;;;;;4.18;1.90;;;;;;;11.56;68.83;93957.22;5011681;28;20053;-46
2022/07/14 00:47:35;;;;;;;9.50;1.90;;;;;;;11.26;69.65;93943.88;5011560;28;20502;-44
2022/07/14 00:50:01;;;;;;;5.47;5.18;;;;;;;11.47;70.05;93962.47;5011942;28;20026;-44
2022/07/14 00:52:29;;;;;;;2.22;1.85;;;;;;;11.32;69.96;93963.84;5011581;28;20491;-45
2022/07/14 00:54:55;;;;;;;2.47;1.98;;;;;;;11.45;69.82;93968.56;5011784;28;20026;-44
2022/07/14 00:57:21;;;;;;;4.40;4.10;;;;;;;11.36;69.91;93964.25;5011758;28;20095;-43
2022/07/14 00:59:47;;;;;;;2.00;1.80;;;;;;;11.29;69.36;93973.22;5011469;28;20060;-43
2022/07/14 01:02:14;;;;;;;2.85;2.20;;;;;;;11.44;68.81;93964.28;5011289;28;20030;-44
2022/07/14 01:04:39;;;;;;;9.50;8.90;;;;;;;11.46;68.38;93964.50;5010047;28;20037;-44
2022/07/14 01:07:05;;;;;;;5.82;4.40;;;;;;;11.45;68.44;93968.56;5011250;28;20034;-44
2022/07/14 01:09:30;;;;;;;9.38;8.75;;;;;;;11.53;68.46;93965.81;5011196;28;20045;-44
2022/07/14 01:11:56;;;;;;;2.08;1.73;;;;;;;11.20;69.88;93962.63;5010433;28;20033;-42
2022/07/14 01:14:22;;;;;;;3.88;3.47;;;;;;;11.17;71.12;93963.00;5010840;28;20026;-44
2022/07/14 01:16:53;;;;;;;7.75;4.85;;;;;;;10.93;70.13;93932.94;5010638;28;20080;-43
2022/07/14 01:19:19;;;;;;;10.18;9.63;;;;;;;10.98;71.17;93960.41;5011255;28;20030;-47
2022/07/14 01:21:44;;;;;;;2.80;2.20;;;;;;;10.92;71.68;93953.53;5010977;28;20033;-43
2022/07/14 01:24:10;;;;;;;8.90;8.10;;;;;;;10.98;71.44;93951.41;5010984;28;20040;-42
2022/07/14 01:26:35;;;;;;;2.30;2.10;;;;;;;10.88;71.61;93948.34;5009375;28;20030;-41
2022/07/14 01:29:00;;;;;;;2.65;2.38;;;;;;;10.77;72.08;93950.63;5010814;28;20431;-41
2022/07/14 01:31:26;;;;;;;4.50;2.20;;;;;;;10.68;71.80;93936.03;4994139;28;20081;-41
2022/07/14 01:33:51;;;;;;;6.50;2.53;;;;;;;10.78;71.83;93941.84;4990894;28;20042;-42
2022/07/14 01:36:17;;;;;;;2.30;2.10;;;;;;;10.83;70.97;93954.03;4991403;28;20033;-42
2022/07/14 01:38:42;;;;;;;2.42;2.22;;;;;;;10.87;70.87;93946.16;4991483;28;20451;-42
2022/07/14 01:41:08;;;;;;;2.33;2.00;;;;;;;10.90;70.70;93945.81;4991496;28;20416;-41
2022/07/14 01:43:35;;;;;;;1.95;1.85;;;;;;;10.82;70.17;93935.97;4991381;28;20487;-41
2022/07/14 01:46:01;;;;;;;1.90;1.80;;;;;;;11.02;68.82;93940.75;4991335;28;20101;-42
2022/07/14 01:48:26;;;;;;;2.40;2.20;;;;;;;10.95;69.33;93935.91;4991164;28;20543;-44
2022/07/14 01:50:52;;;;;;;3.60;1.85;;;;;;;10.91;69.70;93941.78;4991223;28;20483;-43
2022/07/14 01:53:17;;;;;;;1.95;1.70;;;;;;;10.85;70.52;93943.19;5008901;28;20026;-42
2022/07/14 01:55:43;;;;;;;2.40;1.95;;;;;;;10.96;69.73;93937.38;5010364;28;20026;-46
2022/07/14 01:58:09;;;;;;;2.33;1.98;;;;;;;10.61;71.12;93930.44;5010644;28;20072;-44
2022/07/14 02:00:35;;;;;;;3.92;2.03;;;;;;;10.51;71.73;93932.16;5010691;28;20025;-45
2022/07/14 02:03:00;;;;;;;2.13;2.00;;;;;;;10.37;71.31;93936.97;4995487;28;20411;-42
2022/07/14 02:05:27;;;;;;;3.20;2.05;;;;;;;10.23;71.36;93934.78;5005501;28;20105;-43
2022/07/14 02:07:53;;;;;;;2.67;2.25;;;;;;;10.41;71.07;93940.16;5010614;28;20036;-43
2022/07/14 02:13:19;;;;;;;2.92;2.63;;;;;;;10.08;72.59;93937.34;4969122;28;20041;-44
2022/07/14 02:15:44;;;;;;;2.45;2.20;;;;;;;10.15;73.03;93934.72;5001076;28;20046;-43
2022/07/14 02:18:10;;;;;;;3.17;2.53;;;;;;;9.99;73.08;93932.25;5010151;28;20048;-43
2022/07/14 02:20:35;;;;;;;2.40;2.20;;;;;;;10.15;73.10;93940.25;5010550;28;20026;-44
2022/07/14 02:23:01;;;;;;;3.15;2.30;;;;;;;10.02;73.00;93936.72;5010979;28;20534;-44
2022/07/14 02:25:26;;;;;;;2.83;2.50;;;;;;;10.02;72.65;93936.72;5014386;28;20026;-45
2022/07/14 02:27:52;;;;;;;2.20;2.10;;;;;;;10.18;72.18;93939.16;5014188;28;20018;-43
2022/07/14 02:30:17;;;;;;;2.38;2.03;;;;;;;10.22;71.88;93938.84;5014385;28;20048;-43
2022/07/14 02:32:42;;;;;;;3.40;2.15;;;;;;;10.08;71.12;93940.84;5014120;28;20048;-42
2022/07/14 02:35:08;;;;;;;2.25;1.95;;;;;;;10.36;70.15;93946.53;5014134;28;20026;-43
2022/07/14 02:37:33;;;;;;;2.03;1.70;;;;;;;10.34;70.58;93940.06;5013639;28;20014;-44
2022/07/14 02:40:00;;;;;;;2.03;1.88;;;;;;;10.45;70.79;93943.34;5014342;28;20615;-44
2022/07/14 02:42:25;;;;;;;4.30;2.13;;;;;;;10.28;71.20;93942.97;4996316;28;20034;-41
2022/07/14 02:44:51;;;;;;;2.13;2.00;;;;;;;10.05;72.04;93941.19;4994333;28;20023;-41
2022/07/14 02:47:16;;;;;;;7.72;2.17;;;;;;;10.01;72.51;93947.00;4994421;28;20030;-40
2022/07/14 02:49:42;;;;;;;3.83;2.38;;;;;;;9.83;72.54;93950.66;4994264;28;20033;-40
2022/07/14 02:52:07;;;;;;;2.53;2.33;;;;;;;9.78;72.40;93951.50;4994444;28;20030;-41
2022/07/14 02:54:32;;;;;;;2.58;2.38;;;;;;;9.87;72.11;93951.06;4994231;28;20018;-41
2022/07/14 02:56:58;;;;;;;3.83;2.00;;;;;;;10.03;71.06;93955.50;4994439;28;20018;-41
2022/07/14 02:59:23;;;;;;;3.30;2.08;;;;;;;10.16;70.80;93949.25;4994334;28;20474;-43
2022/07/14 03:01:49;;;;;;;2.08;1.83;;;;;;;10.12;70.05;93952.34;4994314;28;20045;-41
2022/07/14 03:04:14;;;;;;;3.15;2.13;;;;;;;10.21;70.34;93945.63;4993787;28;20048;-41
2022/07/14 03:06:40;;;;;;;2.80;2.30;;;;;;;10.37;69.93;93961.09;5004437;28;20091;-41
2022/07/14 03:09:05;;;;;;;2.58;2.38;;;;;;;9.95;71.28;93962.94;5008654;28;20475;-41
2022/07/14 03:11:31;;;;;;;2.72;2.13;;;;;;;9.83;70.97;93962.41;5015830;28;20087;-42
2022/07/14 03:13:56;;;;;;;2.70;2.05;;;;;;;9.84;70.91;93982.47;5021083;28;20029;-42
2022/07/14 03:16:22;;;;;;;2.25;2.10;;;;;;;9.74;71.35;93978.66;5014684;28;20030;-41
2022/07/14 03:18:47;;;;;;;5.55;2.40;;;;;;;9.54;72.77;93977.28;5013101;28;20046;-43
2022/07/14 03:21:13;;;;;;;3.17;2.22;;;;;;;9.50;72.76;93978.84;5004556;28;20488;-43
2022/07/14 03:23:39;;;;;;;3.70;1.98;;;;;;;9.79;71.84;93983.31;5012231;28;20022;-41
2022/07/14 03:26:05;;;;;;;5.43;2.20;;;;;;;9.67;72.18;93985.56;5012419;28;20121;-42
2022/07/14 03:28:31;;;;;;;7.18;2.30;;;;;;;9.92;71.86;93992.31;5012553;28;20057;-42
2022/07/14 03:30:57;;;;;;;2.55;2.35;;;;;;;9.78;72.26;93985.34;5012882;28;20699;-43
2022/07/14 03:33:23;;;;;;;3.67;2.28;;;;;;;9.69;72.54;93993.28;5010284;28;20025;-42
2022/07/14 03:35:50;;;;;;;2.40;2.13;;;;;;;9.76;72.47;93992.66;4999644;28;20105;-42
2022/07/14 03:38:17;;;;;;;2.30;2.10;;;;;;;9.86;71.84;93985.44;4998468;28;20034;-43
2022/07/14 03:40:43;;;;;;;3.22;3.03;;;;;;;9.69;71.94;93994.03;4992446;28;20038;-42
2022/07/14 03:43:08;;;;;;;3.22;2.35;;;;;;;9.70;72.09;93994.78;5011493;28;20400;-41
2022/07/14 03:45:34;;;;;;;7.85;2.42;;;;;;;9.84;72.34;93999.75;5011886;28;20026;-42
2022/07/14 03:47:59;;;;;;;2.08;1.95;;;;;;;9.88;71.34;93999.44;5010838;28;20510;-44
2022/07/14 03:50:25;;;;;;;4.60;2.25;;;;;;;9.82;71.87;93999.56;5012236;28;20026;-41
2022/07/14 03:52:50;;;;;;;4.70;2.10;;;;;;;9.99;71.50;93999.22;5011879;28;20022;-42
2022/07/14 03:55:16;;;;;;;4.63;2.53;;;;;;;9.90;72.95;94003.16;5012823;28;20045;-43
2022/07/14 03:57:42;;;;;;;3.42;2.30;;;;;;;10.00;72.42;93989.69;5012836;28;20032;-41
2022/07/14 04:00:08;;;;;;;2.28;2.08;;;;;;;9.98;73.17;93991.47;5012470;28;20026;-42
2022/07/14 04:02:33;;;;;;;8.10;2.63;;;;;;;9.92;73.31;93994.34;5012558;28;20439;-43
2022/07/14 04:04:59;;;;;;;2.50;2.30;;;;;;;9.96;73.32;94005.81;5012493;28;20026;-42
2022/07/14 04:07:24;;;;;;;2.50;2.30;;;;;;;9.92;74.39;93997.84;5012346;28;20030;-42
2022/07/14 04:09:50;;;;;;;3.03;2.33;;;;;;;10.01;74.44;93993.16;5012687;28;20022;-43
2022/07/14 04:12:16;;;;;;;2.50;2.25;;;;;;;9.84;75.11;93985.22;5012250;28;20037;-44
2022/07/14 04:14:41;;;;;;;7.90;2.40;;;;;;;10.20;74.56;94008.34;5012545;28;20101;-44
2022/07/14 04:17:06;;;;;;;2.20;2.10;;;;;;;10.46;74.00;94010.34;5011990;28;20408;-42
2022/07/14 04:19:32;;;;;;;3.95;2.63;;;;;;;10.30;74.54;93990.09;5011719;28;20114;-42
2022/07/14 04:21:57;;;;;;;2.60;2.40;;;;;;;10.55;74.50;93996.81;5012401;28;20025;-43
2022/07/14 04:24:23;;;;;;;3.13;2.40;;;;;;;10.73;74.45;93995.16;5012003;28;20030;-42
2022/07/14 04:26:48;;;;;;;1.95;1.83;;;;;;;10.73;74.45;93992.41;5012232;28;20018;-44
2022/07/14 04:29:14;;;;;;;2.45;2.15;;;;;;;10.86;74.26;93997.13;5012059;28;20461;-42
2022/07/14 04:31:39;;;;;;;6.30;2.30;;;;;;;10.97;74.42;93996.88;5012039;28;20029;-43
2022/07/14 04:34:05;;;;;;;2.45;2.25;;;;;;;11.07;74.37;94003.41;5012183;28;20144;-44
2022/07/14 04:36:30;;;;;;;2.65;2.45;;;;;;;11.17;75.35;94009.97;5011853;28;20032;-42
2022/07/14 04:38:59;;;;;;;2.45;2.25;;;;;;;11.19;75.38;94004.66;5011702;28;20148;-44
2022/07/14 04:41:25;;;;;;;2.87;2.67;;;;;;;11.30;75.62;94009.91;5010612;28;20026;-42
2022/07/14 04:43:51;;;;;;;2.88;2.67;;;;;;;11.39;75.22;94007.38;5011768;28;20502;-42
2022/07/14 04:46:16;;;;;;;2.05;1.95;;;;;;;11.48;76.31;94010.97;5011377;28;20029;-43
2022/07/14 04:54:09;;;;;;;2.47;2.28;;;;;;;11.72;75.49;94008.59;5011875;28;20415;-43
2022/07/14 04:56:35;;;;;;;3.05;2.75;;;;;;;11.86;74.70;94012.75;5011049;28;20025;-42
2022/07/14 04:59:00;;;;;;;2.55;2.20;;;;;;;11.82;75.65;94009.59;5011340;28;20026;-40
2022/07/14 05:01:26;;;;;;;3.65;2.55;;;;;;;11.92;75.86;94004.28;5011450;28;20033;-40
2022/07/14 05:03:51;;;;;;;3.67;3.35;;;;;;;12.07;75.57;94001.63;5011395;28;20018;-41
2022/07/14 05:06:18;;;;;;;2.58;2.38;;;;;;;12.17;74.75;94000.56;5011216;28;20022;-41
2022/07/14 05:08:43;;;;;;;2.65;2.20;;;;;;;12.32;74.34;94011.00;5011224;28;20010;-40
2022/07/14 05:11:09;;;;;;;3.00;2.75;;;;;;;12.44;75.52;94011.41;5011219;28;20041;-41
2022/07/14 05:13:35;;;;;;;4.72;2.40;;;;;;;12.41;75.66;94002.16;5011522;28;20022;-42
2022/07/14 05:16:00;;;;;;;8.73;2.55;;;;;;;12.59;75.63;94014.97;5009355;28;20029;-43
2022/07/14 05:18:26;;;;;;;2.40;2.20;;;;;;;12.72;75.97;94011.31;5001966;28;20092;-42
2022/07/14 05:20:51;;;;;;;2.78;2.50;;;;;;;12.82;74.79;94017.84;4991507;28;20085;-43
2022/07/14 05:23:17;;;;;;;10.40;2.60;;;;;;;12.97;74.75;94017.13;4991689;28;20058;-42
2022/07/14 05:25:42;;;;;;;2.45;2.25;;;;;;;13.09;74.08;94007.94;4991745;28;20038;-43
2022/07/14 05:28:08;;;;;;;4.82;2.28;;;;;;;13.11;73.46;94024.75;4991407;28;20456;-44
2022/07/14 05:30:34;;;;;;;3.13;2.10;;;;;;;13.22;73.66;94021.63;4991290;28;20482;-44
2022/07/14 05:32:59;;;;;;;6.20;2.45;;;;;;;13.26;73.69;94016.47;5005871;28;20033;-44
2022/07/14 05:35:24;;;;;;;6.13;2.60;;;;;;;13.30;73.02;94011.28;5010774;28;20029;-45
2022/07/14 05:37:50;;;;;;;4.15;2.40;;;;;;;13.49;72.62;93999.84;5011179;28;20022;-41
2022/07/14 05:40:16;;;;;;;3.47;2.42;;;;;;;13.45;73.14;93996.69;5010714;28;20492;-41
2022/07/14 05:42:42;;;;;;;2.08;1.90;;;;;;;13.71;73.20;94003.91;5003407;28;20022;-45
2022/07/14 05:45:08;;;;;;;3.92;2.28;;;;;;;13.78;72.98;94005.94;4991045;28;20113;-43
2022/07/14 05:47:33;;;;;;;3.67;2.03;;;;;;;13.85;73.44;93994.09;4991165;28;20622;-44
2022/07/14 05:49:59;;;;;;;2.20;1.90;;;;;;;14.01;73.27;94003.88;4991227;28;20101;-44
2022/07/14 05:52:25;;;;;;;2.50;2.30;;;;;;;14.11;73.00;93999.22;5004903;28;20045;-41
2022/07/14 05:54:50;;;;;;;2.17;2.00;;;;;;;14.11;73.37;93999.97;5010838;28;20035;-40
2022/07/14 05:57:16;;;;;;;5.47;2.00;;;;;;;14.32;73.42;94002.53;5010467;28;20025;-41
2022/07/14 05:59:41;;;;;;;4.85;2.05;;;;;;;14.41;71.59;94004.72;5010423;28;20026;-41
2022/07/14 06:02:07;;;;;;;2.47;1.35;;;;;;;14.52;71.19;94007.09;5009657;28;20026;-41
2022/07/14 06:04:32;;;;;;;8.73;2.03;;;;;;;14.65;69.08;94000.56;5010699;28;20116;-41
2022/07/14 06:06:58;;;;;;;2.08;1.60;;;;;;;14.73;69.71;94006.81;5010398;28;20022;-41
2022/07/14 06:09:23;;;;;;;2.92;1.38;;;;;;;14.89;68.41;93997.88;5010597;28;20026;-43
2022/07/14 06:11:50;;;;;;;3.08;1.80;;;;;;;14.83;68.16;93980.66;5010445;28;20022;-43
2022/07/14 06:14:15;;;;;;;2.80;2.13;;;;;;;15.05;67.51;93996.47;5009546;28;20028;-42
2022/07/14 06:16:41;;;;;;;3.83;1.60;;;;;;;14.99;66.49;93981.31;5009411;28;20022;-41
2022/07/14 06:19:08;;;;;;;1.75;1.63;;;;;;;15.34;66.07;94001.66;5010694;28;20050;-41
2022/07/14 06:21:34;;;;;;;1.50;1.40;;;;;;;15.39;65.46;93997.94;5010563;28;20037;-43
2022/07/14 06:23:59;;;;;;;1.50;1.40;;;;;;;15.57;65.06;94003.00;5010330;28;20022;-43
2022/07/14 06:26:25;;;;;;;1.40;1.30;;;;;;;15.68;65.36;93996.25;5010138;28;20030;-44
2022/07/14 06:28:50;;;;;;;2.95;1.70;;;;;;;15.76;65.04;93994.91;5010475;28;20026;-42
2022/07/14 06:52:46;;;;;;;2.65;1.50;;;;;;;17.62;56.26;93974.28;5129369;27;20708;-45
2022/07/14 06:55:11;;;;;;;2.22;1.63;;;;;;;17.50;57.79;93973.31;5147697;27;20529;-43
2022/07/14 06:57:37;;;;;;;1.50;1.33;;;;;;;17.56;58.85;93976.59;5131514;27;20404;-44
2022/07/14 07:00:07;;;;;;;1.75;1.55;;;;;;;17.52;58.38;93964.38;5148659;27;20042;-43
2022/07/14 07:02:35;;;;;;;1.80;1.20;;;;;;;17.63;58.50;93972.94;5122065;27;20079;-43
2022/07/14 07:07:44;;;;;;;5.38;1.58;;;;;;;17.68;57.64;93960.75;5120506;28;20034;-42
2022/07/14 07:10:11;;;;;;;2.75;1.85;;;;;;;17.73;58.20;93953.44;5119888;28;20020;-41
2022/07/14 07:12:37;;;;;;;5.53;1.60;;;;;;;17.76;58.75;93952.28;5131250;27;20049;-42
2022/07/14 07:15:03;;;;;;;2.15;1.38;;;;;;;17.91;59.18;93949.22;5120888;28;20488;-42
2022/07/14 07:17:28;;;;;;;2.80;1.15;;;;;;;18.08;59.43;93955.41;5119325;28;20027;-42
2022/07/14 07:19:54;;;;;;;1.65;1.30;;;;;;;18.23;58.80;93965.59;5096718;28;20028;-41
2022/07/14 07:22:19;;;;;;;2.53;1.60;;;;;;;18.33;57.53;93957.19;5113203;28;20015;-41
2022/07/14 07:24:45;;;;;;;2.63;1.65;;;;;;;18.48;56.99;93962.53;5117910;28;20528;-42
2022/07/14 07:27:10;;;;;;;5.10;1.52;;;;;;;18.62;55.52;93955.19;5119079;28;20031;-41
2022/07/14 07:29:36;;;;;;;1.45;1.35;;;;;;;18.79;55.21;93957.81;5120709;28;20035;-41
2022/07/14 07:32:01;;;;;;;2.88;1.30;;;;;;;19.25;55.61;93955.50;5115521;28;20028;-41
2022/07/14 07:34:27;;;;;;;4.65;1.73;;;;;;;19.64;51.94;93940.03;5113941;28;20466;-41
2022/07/14 07:36:52;;;;;;;3.13;2.00;;;;;;;20.79;49.95;93953.31;5114154;28;20023;-41
2022/07/14 07:39:18;;;;;;;2.58;1.35;;;;;;;22.46;47.33;93951.63;5114332;28;20020;-42
2022/07/14 07:41:43;;;;;;;2.90;1.58;;;;;;;24.02;41.01;93945.53;5119481;28;20024;-42
2022/07/14 07:44:09;;;;;;;4.20;1.63;;;;;;;25.42;38.77;93945.50;5116509;28;20047;-42
2022/07/14 07:46:34;;;;;;;2.22;1.08;;;;;;;25.92;36.44;93941.44;5115303;28;20495;-42
2022/07/14 07:49:00;;;;;;;3.13;1.50;;;;;;;25.53;39.13;93946.72;5112787;28;20499;-41
2022/07/14 07:51:25;;;;;;;11.27;5.80;;;;;;;26.29;36.28;93935.31;5104944;28;20040;-41
2022/07/14 07:53:51;;;;;;;6.05;3.20;;;;;;;27.17;35.46;93938.31;5100599;28;20032;-43
2022/07/14 07:56:16;;;;;;;1.63;1.08;;;;;;;27.96;34.33;93938.53;5104551;28;20038;-43
2022/07/14 07:58:42;;;;;;;8.75;1.15;;;;;;;28.60;33.63;93940.91;5100458;28;20408;-43
2022/07/14 08:01:08;;;;;;;1.45;1.25;;;;;;;28.82;32.40;93944.53;5102107;28;20019;-43
2022/07/14 08:03:34;;;;;;;1.10;1.00;;;;;;;28.35;32.25;93933.63;5100096;28;20063;-43
2022/07/14 08:06:00;;;;;;;3.65;1.02;;;;;;;28.62;30.86;93937.41;5100362;28;20039;-43
2022/07/14 08:08:25;;;;;;;1.65;0.85;;;;;;;29.08;31.68;93934.03;5101591;28;20134;-43
2022/07/14 08:10:51;;;;;;;1.20;1.10;;;;;;;29.44;29.85;93928.78;5099882;28;20031;-43
2022/07/14 08:13:16;;;;;;;3.53;0.80;;;;;;;29.77;29.37;93939.81;5100817;28;20027;-41
2022/07/14 08:15:42;;;;;;;1.02;0.70;;;;;;;29.10;31.37;93944.72;5103031;28;20031;-42
2022/07/14 08:18:07;;;;;;;1.00;0.90;;;;;;;29.58;31.41;93932.09;5106871;28;20114;-43
2022/07/14 08:20:34;;;;;;;3.97;1.10;;;;;;;29.90;29.14;93927.38;5102195;28;20028;-43
2022/07/14 08:22:59;;;;;;;2.05;0.77;;;;;;;30.43;29.75;93935.31;5100631;28;20062;-42
2022/07/14 08:25:25;;;;;;;1.92;1.00;;;;;;;30.45;27.41;93931.81;5101520;28;20581;-43
2022/07/14 08:27:51;;;;;;;2.28;1.00;;;;;;;30.59;27.06;93929.34;5081006;28;20027;-42
2022/07/14 08:30:16;;;;;;;1.65;0.80;;;;;;;31.27;27.14;93921.84;5100298;28;20153;-43
2022/07/14 08:32:49;;;;;;;1.40;1.00;;;;;;;31.83;26.89;93922.47;5100710;28;20102;-43
2022/07/14 08:35:16;;;;;;;2.08;0.80;;;;;;;32.36;27.94;93921.44;5099606;28;20024;-44
2022/07/14 08:37:42;;;;;;;8.95;1.27;;;;;;;32.86;25.96;93923.16;5097711;28;20032;-43
2022/07/14 08:40:12;;;;;;;0.55;0.55;;;;;;;33.00;24.85;93919.13;5100964;28;20036;-43
2022/07/14 08:42:42;;;;;;;3.38;1.20;;;;;;;33.28;24.20;93919.63;5100113;28;20042;-43
2022/07/14 08:45:10;;;;;;;7.15;0.85;;;;;;;34.07;23.93;93919.41;5081625;28;20472;-43
2022/07/14 08:47:36;;;;;;;1.42;0.77;;;;;;;34.74;23.67;93923.13;5100328;27;20176;-42
2022/07/14 08:50:06;;;;;;;1.15;0.70;;;;;;;34.97;22.60;93916.19;5106998;28;20035;-43
2022/07/14 08:52:32;;;;;;;2.25;0.80;;;;;;;35.33;21.52;93915.81;5099431;28;20072;-43
2022/07/14 08:54:58;;;;;;;1.13;0.80;;;;;;;35.30;21.78;93914.38;5096900;28;20532;-43
2022/07/14 08:57:24;;;;;;;1.50;0.77;;;;;;;35.64;22.04;93909.63;5106282;27;20119;-43
2022/07/14 08:59:49;;;;;;;2.50;0.80;;;;;;;35.36;19.73;93908.66;5104484;28;20614;-43
2022/07/14 09:02:15;;;;;;;1.20;0.70;;;;;;;35.87;21.73;93907.63;5097797;28;20035;-42
2022/07/14 09:04:45;;;;;;;3.72;0.80;;;;;;;36.17;21.71;93904.25;5100351;28;20067;-45
2022/07/14 09:07:12;;;;;;;1.20;1.00;;;;;;;36.69;20.56;93901.56;5099736;28;20112;-44
2022/07/14 09:09:38;;;;;;;41.20;3.67;;;;;;;37.32;19.52;93904.59;5101235;28;20535;-44
2022/07/14 09:12:05;;;;;;;0.88;0.68;;;;;;;37.39;17.90;93894.53;5090367;28;20024;-44
2022/07/14 09:17:20;;;;;;;1.35;0.65;;;;;;;37.65;18.41;93897.41;5091065;28;20051;-42
2022/07/14 09:20:03;;;;;;;1.45;0.60;;;;;;;35.84;17.51;93894.69;5099561;28;20476;-44
2022/07/14 09:22:32;;;;;;;7.35;1.08;;;;;;;34.74;19.01;93892.28;5110424;28;20031;-44
2022/07/14 09:24:57;;;;;;;1.13;0.47;;;;;;;34.37;18.76;93893.28;5100201;28;20088;-45
2022/07/14 09:27:23;;;;;;;2.05;0.57;;;;;;;34.08;17.70;93894.34;5101465;28;20073;-43
2022/07/14 09:41:48;;;;;;;1.17;0.55;;;;;;;33.89;20.25;93886.91;5007712;28;21222;-42
2022/07/14 09:44:17;;;;;;;0.68;0.40;;;;;;;33.76;17.75;93879.56;5008066;28;20404;-41
2022/07/14 09:47:00;;;;;;;1.52;1.10;;;;;;;33.14;19.38;93876.44;5007331;28;20049;-42
2022/07/14 09:49:27;;;;;;;4.57;2.47;;;;;;;33.02;21.94;93867.66;5007536;28;20026;-41
2022/07/14 09:52:01;;;;;;;0.70;0.70;;;;;;;32.69;19.48;93880.66;5007597;28;20117;-42
2022/07/14 09:54:48;;;;;;;1.17;0.68;;;;;;;32.64;21.11;93874.13;5007927;28;20026;-42
2022/07/14 09:57:14;;;;;;;16.38;4.60;;;;;;;32.25;18.81;93869.06;5007840;28;20105;-41
2022/07/14 09:59:53;;;;;;;2.53;1.33;;;;;;;31.85;20.91;93873.94;5007539;28;20108;-41
2022/07/14 10:02:26;;;;;;;5.13;1.40;;;;;;;31.86;21.03;93876.13;5007526;28;20026;-41
2022/07/14 10:04:54;;;;;;;6.07;2.05;;;;;;;31.86;22.75;93878.28;5002563;28;20405;-41
2022/07/14 10:07:20;;;;;;;1.60;0.70;;;;;;;31.68;19.41;93869.31;4988878;28;20554;-41
2022/07/14 10:09:56;;;;;;;2.20;1.15;;;;;;;31.64;18.75;93861.34;5004163;28;20033;-41
2022/07/14 10:12:24;;;;;;;3.67;1.65;;;;;;;31.10;19.10;93877.22;5006070;28;20034;-41
2022/07/14 10:14:50;;;;;;;1.52;0.60;;;;;;;31.06;21.62;93860.00;5003879;28;20026;-41
2022/07/14 10:17:16;;;;;;;4.65;0.75;;;;;;;31.03;21.51;93869.91;4999171;28;20499;-41
2022/07/14 10:19:43;;;;;;;1.92;0.63;;;;;;;31.25;23.23;93862.59;5004042;28;20018;-41
2022/07/14 10:22:09;;;;;;;0.60;0.60;;;;;;;31.29;19.88;93868.41;4993144;28;20042;-41
2022/07/14 10:24:34;;;;;;;0.50;0.45;;;;;;;31.07;20.79;93855.75;4992114;28;20144;-42
2022/07/14 10:27:00;;;;;;;0.75;0.40;;;;;;;30.96;22.04;93859.75;5003505;28;20041;-41
2022/07/14 10:29:26;;;;;;;1.30;0.60;;;;;;;31.12;21.49;93857.31;5005201;28;20022;-41
2022/07/14 10:32:22;;;;;;;2.88;0.75;;;;;;;31.51;21.77;93853.97;5005489;28;20053;-41
2022/07/14 10:35:02;;;;;;;1.25;0.50;;;;;;;31.77;22.26;93862.38;5004112;28;20030;-41
2022/07/14 10:38:11;;;;;;;1.02;0.60;;;;;;;32.13;22.38;93841.00;5004061;28;20026;-41
2022/07/14 10:41:19;;;;;;;0.73;0.60;;;;;;;32.27;22.54;93839.84;4998083;28;20050;-41
2022/07/14 10:44:17;;;;;;;2.43;0.50;;;;;;;32.18;21.65;93841.81;4979402;28;20349;-41
2022/07/14 10:46:45;;;;;;;1.77;0.60;;;;;;;31.94;23.94;93841.31;4981116;28;20550;-41
2022/07/14 10:49:13;;;;;;;0.88;0.50;;;;;;;31.99;20.66;93839.97;4993792;28;20030;-41
2022/07/14 10:51:51;;;;;;;2.45;0.68;;;;;;;31.70;21.05;93840.78;4993511;28;20423;-40
2022/07/14 10:54:24;;;;;;;1.75;0.52;;;;;;;31.45;20.10;93830.25;4993482;28;20030;-41
2022/07/14 10:56:51;;;;;;;0.90;0.80;;;;;;;31.56;22.58;93837.63;4993759;28;20062;-41
2022/07/14 10:59:25;;;;;;;1.25;0.60;;;;;;;31.54;21.42;93841.16;4991981;28;20412;-40
2022/07/14 11:02:13;;;;;;;3.17;0.70;;;;;;;30.99;21.63;93841.31;4993706;28;20050;-40
2022/07/14 11:04:57;;;;;;;0.60;0.57;;;;;;;31.20;23.62;93832.53;4993630;28;20448;-41
2022/07/14 11:07:48;;;;;;;3.72;0.98;;;;;;;31.33;22.41;93830.69;4993340;28;20038;-42
2022/07/14 11:10:19;;;;;;;0.98;0.90;;;;;;;31.09;20.98;93827.25;4987401;28;20511;-42
2022/07/14 11:13:03;;;;;;;3.60;0.50;;;;;;;30.83;20.54;93830.19;4987896;28;20074;-40
2022/07/14 11:15:42;;;;;;;0.90;0.40;;;;;;;30.85;20.78;93826.66;4992187;28;20419;-40
2022/07/14 11:18:25;;;;;;;1.08;0.65;;;;;;;30.25;22.00;93829.41;4983762;28;20041;-40
2022/07/14 11:21:02;;;;;;;1.52;0.60;;;;;;;30.30;22.35;93827.38;4983929;28;20041;-39
2022/07/14 11:23:48;;;;;;;1.27;0.73;;;;;;;30.33;23.63;93826.06;4992880;28;20050;-40
2022/07/14 11:39:57;;;;;;;4.03;0.60;;;;;;;29.96;23.93;93813.66;5128468;27;20599;-42
2022/07/14 11:42:22;;;;;;;6.40;0.75;;;;;;;29.87;23.41;93814.84;5128342;27;20054;-41
2022/07/14 11:44:51;;;;;;;0.63;0.50;;;;;;;29.50;24.18;93811.59;5109763;28;20034;-41
2022/07/14 11:47:22;;;;;;;1.30;0.68;;;;;;;29.59;23.59;93816.84;5107840;27;20026;-41
2022/07/14 11:50:00;;;;;;;0.50;0.50;;;;;;;29.73;24.47;93810.84;5107816;28;20512;-41
2022/07/14 11:52:28;;;;;;;0.75;0.50;;;;;;;29.87;22.97;93808.41;5113112;28;20032;-41
2022/07/14 11:54:56;;;;;;;1.00;0.80;;;;;;;29.77;20.95;93808.13;5128408;27;20031;-41
2022/07/14 11:57:21;;;;;;;0.40;0.40;;;;;;;29.59;23.45;93802.63;5108407;27;20449;-42
2022/07/14 11:59:47;;;;;;;0.80;0.50;;;;;;;29.41;23.12;93802.09;5107870;28;20153;-42
2022/07/14 12:02:18;;;;;;;1.60;1.17;;;;;;;29.19;22.86;93796.47;5107411;28;20026;-41
2022/07/14 12:04:49;;;;;;;2.55;0.60;;;;;;;29.19;24.90;93790.78;5111953;28;20079;-41
2022/07/14 12:07:15;;;;;;;1.92;1.08;;;;;;;29.18;25.26;93792.19;5127821;28;20039;-41
2022/07/14 12:09:41;;;;;;;1.35;0.70;;;;;;;29.26;28.87;93788.84;5125492;27;20027;-41
2022/07/14 12:12:06;;;;;;;0.90;0.70;;;;;;;29.10;23.85;93785.50;5106698;28;20531;-41
2022/07/14 12:14:33;;;;;;;1.35;1.23;;;;;;;29.01;24.22;93780.94;5112440;28;20055;-41
2022/07/14 12:16:59;;;;;;;3.65;0.60;;;;;;;28.89;27.11;93783.44;5122905;28;20020;-41
2022/07/14 12:19:31;;;;;;;3.03;0.80;;;;;;;28.97;25.17;93775.13;5124351;27;20029;-42
2022/07/14 12:22:03;;;;;;;1.80;1.00;;;;;;;29.09;25.82;93772.66;5125309;27;20039;-41
2022/07/14 12:24:29;;;;;;;1.15;0.88;;;;;;;28.93;26.26;93767.22;5110302;28;20039;-42
2022/07/14 12:27:03;;;;;;;1.17;0.75;;;;;;;29.00;24.74;93779.50;5119739;27;20023;-43
2022/07/14 12:29:28;;;;;;;1.48;0.80;;;;;;;29.15;24.63;93775.69;5115649;27;20034;-42
2022/07/14 12:31:56;;;;;;;1.15;0.95;;;;;;;29.24;23.96;93768.88;5110934;28;20031;-41
2022/07/14 12:34:21;;;;;;;1.10;0.80;;;;;;;29.05;24.47;93775.38;5107010;28;20039;-42
2022/07/14 12:36:48;;;;;;;1.00;0.90;;;;;;;29.17;27.94;93770.81;5113265;28;20526;-44